Time;durP1;ratioP1;P1;durP2;ratioP2;P2;SDS_P1;SDS_P2;PMS_P1;PMS_P2;Temp;Humidity;BMP_temperature;BMP_pressure;BME280_temperature;BME280_humidity;BME280_pressure;Samples;Min_cycle;Max_cycle;Signal;HPM_P1;HPM_P2
2023/01/23 00:01:49;;;;;;;;;;;;;;;3.11;100.00;103475.88;5025561;28;20356;-65
2023/01/23 00:04:15;;;;;;;;;;;;;;;3.14;100.00;103469.81;5015655;28;19943;-65
2023/01/23 00:06:42;;;;;;;;;;;;;;;3.14;100.00;103469.81;5014970;28;20390;-65
2023/01/23 00:09:08;;;;;;;;;;;;;;;3.14;100.00;103464.63;5011884;28;19925;-65
2023/01/23 00:11:34;;;;;;;;;;;;;;;3.13;100.00;103468.94;4999879;28;19928;-66
2023/01/23 00:14:01;;;;;;;;;;;;;;;3.16;100.00;103463.69;5010246;28;19931;-66
2023/01/23 00:16:29;;;;;;;;;;;;;;;3.16;100.00;103461.09;5014197;28;19928;-65
2023/01/23 00:18:56;;;;;;;;;;;;;;;3.15;100.00;103463.72;5018216;28;19921;-65
2023/01/23 00:21:24;;;;;;;;;;;;;;;3.13;100.00;103460.31;5016359;28;20476;-65
2023/01/23 00:23:51;;;;;;;;;;;;;;;3.09;100.00;103456.91;5012562;28;19921;-65
2023/01/23 00:26:19;;;;;;;;;;;;;;;3.08;100.00;103465.59;5016045;28;20389;-65
2023/01/23 00:28:46;;;;;;;;;;;;;;;3.03;100.00;103472.63;5009235;28;19972;-65
2023/01/23 00:31:14;;;;;;;;;;;;;;;3.00;100.00;103475.28;5021243;28;20456;-65
2023/01/23 00:33:41;;;;;;;;;;;;;;;3.07;100.00;103470.81;5014682;28;20405;-65
2023/01/23 00:36:08;;;;;;;;;;;;;;;3.05;100.00;103477.78;5018701;28;19925;-65
2023/01/23 00:38:35;;;;;;;;;;;;;;;3.00;100.00;103487.38;5013866;28;19925;-66
2023/01/23 00:41:01;;;;;;;;;;;;;;;3.04;100.00;103491.59;5016121;28;19925;-65
2023/01/23 00:43:28;;;;;;;;;;;;;;;3.05;100.00;103489.00;5020801;28;19928;-66
2023/01/23 00:45:55;;;;;;;;;;;;;;;3.09;100.00;103493.22;5022438;28;20415;-65
2023/01/23 00:48:21;;;;;;;;;;;;;;;3.10;100.00;103491.50;5029675;28;19971;-66
2023/01/23 00:50:47;;;;;;;;;;;;;;;3.10;100.00;103486.31;5013233;28;19932;-65
2023/01/23 00:53:14;;;;;;;;;;;;;;;3.10;100.00;103483.72;5017668;28;19925;-65
2023/01/23 00:55:41;;;;;;;;;;;;;;;3.09;100.00;103479.41;5028907;28;20340;-65
2023/01/23 00:58:08;;;;;;;;;;;;;;;3.06;100.00;103482.94;5020711;28;20179;-65
2023/01/23 01:00:35;;;;;;;;;;;;;;;3.08;100.00;103488.94;5024575;28;20401;-65
2023/01/23 01:03:01;;;;;;;;;;;;;;;3.06;100.00;103480.34;5016708;28;19932;-66
2023/01/23 01:05:28;;;;;;;;;;;;;;;3.04;100.00;103481.25;5024245;28;19925;-65
2023/01/23 01:07:54;;;;;;;;;;;;;;;3.05;100.00;103476.03;5017140;28;20340;-64
2023/01/23 01:10:20;;;;;;;;;;;;;;;3.05;100.00;103478.63;5024120;28;19929;-65
2023/01/23 01:12:47;;;;;;;;;;;;;;;3.06;100.00;103479.47;5030995;28;20328;-65
2023/01/23 01:15:14;;;;;;;;;;;;;;;3.06;100.00;103477.75;5023556;28;19986;-65
2023/01/23 01:17:40;;;;;;;;;;;;;;;3.06;100.00;103482.06;5024372;28;19925;-64
2023/01/23 01:20:07;;;;;;;;;;;;;;;3.03;100.00;103482.13;5008831;28;20283;-65
2023/01/23 01:22:33;;;;;;;;;;;;;;;3.01;100.00;103489.94;5027445;28;20011;-65
2023/01/23 01:25:00;;;;;;;;;;;;;;;3.02;100.00;103489.06;5025473;28;19921;-65
2023/01/23 01:27:27;;;;;;;;;;;;;;;3.00;100.00;103489.97;5020068;28;19921;-65
2023/01/23 01:29:53;;;;;;;;;;;;;;;3.04;100.00;103491.59;5027565;28;20370;-65
2023/01/23 01:32:20;;;;;;;;;;;;;;;3.04;100.00;103496.81;5013255;28;19956;-65
2023/01/23 01:34:46;;;;;;;;;;;;;;;3.02;100.00;103499.44;5023389;28;19927;-64
2023/01/23 01:37:12;;;;;;;;;;;;;;;3.02;100.00;103498.56;5020066;28;20005;-64
2023/01/23 01:39:39;;;;;;;;;;;;;;;3.05;100.00;103496.78;5021127;28;20266;-65
2023/01/23 01:42:05;;;;;;;;;;;;;;;3.06;100.00;103508.00;4990632;28;19968;-65
2023/01/23 01:44:50;;;;;;;;;;;;;;;3.09;100.00;103506.19;5020065;28;20336;-64
2023/01/23 01:47:16;;;;;;;;;;;;;;;3.09;100.00;103494.97;5002894;28;19925;-65
2023/01/23 01:49:43;;;;;;;;;;;;;;;3.12;100.00;103503.56;5018034;28;19921;-65
2023/01/23 01:52:11;;;;;;;;;;;;;;;3.14;100.00;103498.34;5029006;28;20328;-65
2023/01/23 01:54:40;;;;;;;;;;;;;;;3.15;100.00;103497.44;5017493;28;19979;-65
2023/01/23 01:57:06;;;;;;;;;;;;;;;3.17;100.00;103488.75;4997370;28;19928;-65
2023/01/23 01:59:35;;;;;;;;;;;;;;;3.19;100.00;103496.47;5023750;28;19934;-65
2023/01/23 02:02:07;;;;;;;;;;;;;;;3.21;100.00;103499.06;5008673;28;19925;-65
2023/01/23 02:04:35;;;;;;;;;;;;;;;3.21;100.00;103505.09;5026921;28;20293;-65
2023/01/23 02:07:04;;;;;;;;;;;;;;;3.20;100.00;103494.75;5015238;28;19941;-65
2023/01/23 02:09:32;;;;;;;;;;;;;;;3.23;100.00;103494.69;5022278;28;19926;-65
2023/01/23 02:12:00;;;;;;;;;;;;;;;3.22;100.00;103495.59;5015184;28;20327;-65
2023/01/23 02:14:26;;;;;;;;;;;;;;;3.23;100.00;103492.09;5034924;28;19936;-65
2023/01/23 02:16:55;;;;;;;;;;;;;;;3.24;100.00;103496.41;5030651;28;20321;-67
2023/01/23 02:19:30;;;;;;;;;;;;;;;3.20;100.00;103498.22;5021121;28;19924;-66
2023/01/23 02:22:03;;;;;;;;;;;;;;;3.21;100.00;103499.91;5026084;28;19925;-66
2023/01/23 02:24:44;;;;;;;;;;;;;;;3.21;100.00;103504.25;5016753;28;19936;-65
2023/01/23 02:27:10;;;;;;;;;;;;;;;3.20;100.00;103505.13;5022094;28;19964;-65
2023/01/23 02:29:43;;;;;;;;;;;;;;;3.22;100.00;103504.22;5019147;28;20657;-65
2023/01/23 02:32:10;;;;;;;;;;;;;;;3.20;100.00;103505.13;5027298;28;19925;-65
2023/01/23 02:34:37;;;;;;;;;;;;;;;3.20;100.00;103505.13;5003477;28;19925;-65
2023/01/23 02:37:04;;;;;;;;;;;;;;;3.15;100.00;103511.25;5021796;28;20311;-65
2023/01/23 02:39:31;;;;;;;;;;;;;;;3.19;100.00;103509.44;5027357;28;20318;-64
2023/01/23 02:41:59;;;;;;;;;;;;;;;3.20;100.00;103508.56;5012507;28;19925;-65
2023/01/23 02:44:28;;;;;;;;;;;;;;;3.16;100.00;103507.78;5026678;28;19925;-65
2023/01/23 02:46:55;;;;;;;;;;;;;;;3.20;100.00;103510.31;5019481;28;19932;-66
2023/01/23 02:49:22;;;;;;;;;;;;;;;3.22;100.00;103504.22;5026745;28;19924;-65
2023/01/23 02:51:49;;;;;;;;;;;;;;;3.25;100.00;103501.53;5021681;28;19932;-65
2023/01/23 02:54:16;;;;;;;;;;;;;;;3.26;100.00;103505.00;5019143;28;19921;-65
2023/01/23 02:56:42;;;;;;;;;;;;;;;3.26;100.00;103508.44;5023209;28;19928;-65
2023/01/23 03:01:53;;;;;;;;;;;;;;;3.31;100.00;103513.53;5024173;28;19925;-65
2023/01/23 03:04:20;;;;;;;;;;;;;;;3.32;100.00;103523.88;5017378;28;20385;-65
2023/01/23 03:06:46;;;;;;;;;;;;;;;3.33;100.00;103523.00;5022415;28;19921;-65
2023/01/23 03:09:14;;;;;;;;;;;;;;;3.35;100.00;103523.81;5014915;28;19932;-65
2023/01/23 03:11:41;;;;;;;;;;;;;;;3.36;100.00;103524.66;5025271;28;19925;-65
2023/01/23 03:14:10;;;;;;;;;;;;;;;3.35;100.00;103529.00;5026297;28;20186;-65
2023/01/23 03:16:36;;;;;;;;;;;;;;;3.41;100.00;103527.16;5017011;28;19929;-65
2023/01/23 03:19:07;;;;;;;;;;;;;;;3.39;100.00;103527.19;5025011;28;19925;-65
2023/01/23 03:21:34;;;;;;;;;;;;;;;3.35;100.00;103522.94;5009056;28;19921;-65
2023/01/23 03:24:05;;;;;;;;;;;;;;;3.38;100.00;103529.84;5020756;28;19928;-66
2023/01/23 03:26:31;;;;;;;;;;;;;;;3.38;100.00;103525.50;5014550;28;20300;-66
2023/01/23 03:31:42;;;;;;;;;;;;;;;3.40;100.00;103521.13;5020700;28;19932;-65
2023/01/23 03:34:09;;;;;;;;;;;;;;;3.38;100.00;103520.28;5017290;28;19925;-66
2023/01/23 03:36:36;;;;;;;;;;;;;;;3.39;100.00;103511.59;5019942;28;19932;-65
2023/01/23 03:41:49;;;;;;;;;;;;;;;3.33;100.00;103516.94;5028376;28;19929;-65
2023/01/23 03:44:17;;;;;;;;;;;;;;;3.34;100.00;103516.06;5015849;28;19947;-66
2023/01/23 03:46:44;;;;;;;;;;;;;;;3.33;100.00;103515.22;5030378;28;19925;-66
2023/01/23 03:49:11;;;;;;;;;;;;;;;3.32;100.00;103521.28;5023429;28;20290;-65
2023/01/23 03:51:37;;;;;;;;;;;;;;;3.31;100.00;103531.69;5015634;28;19928;-66
2023/01/23 03:54:03;;;;;;;;;;;;;;;3.29;100.00;103529.16;5024833;28;19936;-65
2023/01/23 03:56:30;;;;;;;;;;;;;;;3.28;100.00;103531.78;5017241;28;19925;-65
2023/01/23 03:58:57;;;;;;;;;;;;;;;3.29;100.00;103529.16;5021650;28;21376;-65
2023/01/23 04:01:24;;;;;;;;;;;;;;;3.31;100.00;103535.16;5020430;28;20369;-65
2023/01/23 04:03:51;;;;;;;;;;;;;;;3.32;100.00;103529.06;5021541;28;19925;-65
2023/01/23 04:06:18;;;;;;;;;;;;;;;3.32;100.00;103516.09;5000866;28;20389;-65
2023/01/23 04:08:45;;;;;;;;;;;;;;;3.35;100.00;103522.94;5024173;28;19921;-65
2023/01/23 04:11:11;;;;;;;;;;;;;;;3.38;100.00;103527.25;5024581;28;19932;-65
2023/01/23 04:13:38;;;;;;;;;;;;;;;3.36;100.00;103528.09;5011774;28;19932;-65
2023/01/23 04:16:05;;;;;;;;;;;;;;;3.36;100.00;103529.84;5030104;28;20272;-67
2023/01/23 04:18:32;;;;;;;;;;;;;;;3.38;100.00;103533.28;5010020;28;20004;-65
2023/01/23 04:20:58;;;;;;;;;;;;;;;3.36;100.00;103535.03;5021319;28;20397;-66
2023/01/23 04:23:25;;;;;;;;;;;;;;;3.38;100.00;103535.03;5022185;28;19924;-64
2023/01/23 04:25:51;;;;;;;;;;;;;;;3.36;100.00;103529.84;5023283;28;19932;-65
2023/01/23 04:28:18;;;;;;;;;;;;;;;3.34;100.00;103531.63;5025395;28;19931;-65
2023/01/23 04:30:45;;;;;;;;;;;;;;;3.40;100.00;103536.69;5018049;28;19921;-64
2023/01/23 04:33:11;;;;;;;;;;;;;;;3.43;100.00;103538.34;5030945;28;19924;-66
2023/01/23 04:35:37;;;;;;;;;;;;;;;3.46;100.00;103538.31;5013916;28;19924;-65
2023/01/23 04:38:04;;;;;;;;;;;;;;;3.43;100.00;103536.63;5025236;28;19925;-64
2023/01/23 04:40:30;;;;;;;;;;;;;;;3.43;100.00;103539.22;5026302;28;20020;-66
2023/01/23 04:42:56;;;;;;;;;;;;;;;3.44;100.00;103537.47;5007461;28;19967;-65
2023/01/23 04:45:22;;;;;;;;;;;;;;;3.44;100.00;103537.47;5026510;28;19921;-65
2023/01/23 04:47:49;;;;;;;;;;;;;;;3.43;100.00;103539.22;5011261;28;19929;-65
2023/01/23 04:50:15;;;;;;;;;;;;;;;3.43;100.00;103544.41;5027791;28;19932;-65
2023/01/23 04:52:42;;;;;;;;;;;;;;;3.40;100.00;103546.22;5018892;28;20008;-65
2023/01/23 04:55:08;;;;;;;;;;;;;;;3.41;100.00;103550.50;5013522;28;20543;-66
2023/01/23 04:57:35;;;;;;;;;;;;;;;3.36;100.00;103545.44;5019484;28;19925;-65
2023/01/23 05:00:01;;;;;;;;;;;;;;;3.42;100.00;103547.88;5018669;28;20333;-65
2023/01/23 05:02:28;;;;;;;;;;;;;;;3.40;100.00;103549.66;5023711;28;20289;-65
2023/01/23 05:04:54;;;;;;;;;;;;;;;3.42;100.00;103554.81;5018483;28;19982;-65
2023/01/23 05:07:21;;;;;;;;;;;;;;;3.40;100.00;103548.81;5024502;28;20361;-65
2023/01/23 05:09:47;;;;;;;;;;;;;;;3.39;100.00;103552.28;5015132;28;19991;-67
2023/01/23 05:12:13;;;;;;;;;;;;;;;3.34;100.00;103560.16;5018755;28;19957;-66
2023/01/23 05:14:40;;;;;;;;;;;;;;;3.38;100.00;103560.97;5017198;28;19925;-66
2023/01/23 05:17:07;;;;;;;;;;;;;;;3.36;100.00;103564.44;5015806;28;19927;-66
2023/01/23 05:19:33;;;;;;;;;;;;;;;3.38;100.00;103560.97;5023712;28;20392;-66
2023/01/23 05:21:59;;;;;;;;;;;;;;;3.36;100.00;103566.19;5015223;28;20734;-67
2023/01/23 05:24:26;;;;;;;;;;;;;;;3.39;100.00;103566.09;4985157;28;19936;-68
2023/01/23 05:26:52;;;;;;;;;;;;;;;3.37;100.00;103565.28;5005245;28;20345;-67
2023/01/23 05:29:18;;;;;;;;;;;;;;;3.40;100.00;103556.59;5020907;28;20408;-66
2023/01/23 05:31:45;;;;;;;;;;;;;;;3.42;100.00;103560.84;5026002;28;20300;-67
2023/01/23 05:34:11;;;;;;;;;;;;;;;3.40;100.00;103566.97;5017214;28;19925;-67
2023/01/23 05:36:38;;;;;;;;;;;;;;;3.38;100.00;103572.19;5031528;28;19924;-67
2023/01/23 05:39:04;;;;;;;;;;;;;;;3.40;100.00;103574.75;5023470;28;19928;-67
2023/01/23 05:41:31;;;;;;;;;;;;;;;3.41;100.00;103579.94;5028051;28;20044;-67
2023/01/23 05:43:57;;;;;;;;;;;;;;;3.40;100.00;103574.75;5028332;28;20048;-66
2023/01/23 05:46:23;;;;;;;;;;;;;;;3.42;100.00;103576.44;5022342;28;19928;-66
2023/01/23 05:48:50;;;;;;;;;;;;;;;3.41;100.00;103579.03;5027734;28;19951;-67
2023/01/23 05:51:17;;;;;;;;;;;;;;;3.41;100.00;103579.94;5006266;28;20302;-66
2023/01/23 05:53:43;;;;;;;;;;;;;;;3.46;100.00;103566.84;5018870;28;20023;-67
2023/01/23 05:56:10;;;;;;;;;;;;;;;3.45;100.00;103573.78;5002220;28;19948;-66
2023/01/23 05:58:36;;;;;;;;;;;;;;;3.45;100.00;103573.78;5027471;28;19955;-66
2023/01/23 06:01:03;;;;;;;;;;;;;;;3.46;100.00;103578.06;5019193;28;20012;-66
2023/01/23 06:03:29;;;;;;;;;;;;;;;3.45;100.00;103581.56;5004152;28;19921;-67
2023/01/23 06:05:56;;;;;;;;;;;;;;;3.45;100.00;103581.56;5012710;28;20447;-66
2023/01/23 06:08:22;;;;;;;;;;;;;;;3.46;100.00;103585.84;5003349;28;19929;-66
2023/01/23 06:10:48;;;;;;;;;;;;;;;3.45;100.00;103591.06;5013421;28;19955;-67
2023/01/23 06:13:14;;;;;;;;;;;;;;;3.49;100.00;103595.31;5033462;28;20305;-66
2023/01/23 06:15:41;;;;;;;;;;;;;;;3.50;100.00;103594.44;5023869;28;19927;-66
2023/01/23 06:18:07;;;;;;;;;;;;;;;3.49;100.00;103596.19;5029239;28;20011;-67
2023/01/23 06:20:34;;;;;;;;;;;;;;;3.49;100.00;103601.38;5012720;28;19928;-67
2023/01/23 06:23:00;;;;;;;;;;;;;;;3.48;100.00;103599.66;5002933;28;19925;-66
2023/01/23 06:25:26;;;;;;;;;;;;;;;3.50;100.00;103603.06;5011153;28;19967;-66
2023/01/23 06:27:53;;;;;;;;;;;;;;;3.51;100.00;103599.59;5019103;28;19920;-67
2023/01/23 06:30:20;;;;;;;;;;;;;;;3.54;100.00;103603.88;5027186;28;19925;-66
2023/01/23 06:32:47;;;;;;;;;;;;;;;3.51;100.00;103601.34;5016410;28;20035;-66
2023/01/23 06:35:13;;;;;;;;;;;;;;;3.55;100.00;103595.22;5019791;28;20342;-66
2023/01/23 06:37:40;;;;;;;;;;;;;;;3.53;100.00;103602.16;5012415;28;19921;-67
2023/01/23 06:40:07;;;;;;;;;;;;;;;3.54;100.00;103596.91;5011245;28;19931;-66
2023/01/23 06:42:33;;;;;;;;;;;;;;;3.53;100.00;103599.56;5010191;28;19921;-67
2023/01/23 06:44:59;;;;;;;;;;;;;;;3.53;100.00;103596.97;5020752;28;20015;-67
2023/01/23 06:47:25;;;;;;;;;;;;;;;3.54;100.00;103596.06;5005936;28;19929;-67
2023/01/23 06:49:52;;;;;;;;;;;;;;;3.58;100.00;103604.66;5003013;28;19943;-66
2023/01/23 06:52:18;;;;;;;;;;;;;;;3.63;100.00;103601.09;5014264;28;19925;-67
2023/01/23 06:54:44;;;;;;;;;;;;;;;3.67;100.00;103607.06;4982609;28;19948;-66
2023/01/23 06:57:11;;;;;;;;;;;;;;;3.62;100.00;103609.75;5013458;28;20563;-66
2023/01/23 06:59:39;;;;;;;;;;;;;;;3.64;100.00;103607.97;5018350;28;19964;-66
2023/01/23 07:02:07;;;;;;;;;;;;;;;3.62;100.00;103612.34;4994919;28;20324;-66
2023/01/23 07:04:33;;;;;;;;;;;;;;;3.61;100.00;103612.34;5017659;28;20016;-67
2023/01/23 07:07:00;;;;;;;;;;;;;;;3.64;100.00;103620.09;5016189;28;19927;-67
2023/01/23 07:09:26;;;;;;;;;;;;;;;3.64;100.00;103618.34;5029936;28;19924;-65
2023/01/23 07:11:53;;;;;;;;;;;;;;;3.67;100.00;103622.63;5015929;28;20380;-66
2023/01/23 07:14:19;;;;;;;;;;;;;;;3.64;100.00;103625.28;5000941;28;20632;-67
2023/01/23 07:16:45;;;;;;;;;;;;;;;3.64;100.00;103617.50;5019625;28;19921;-66
2023/01/23 07:19:12;;;;;;;;;;;;;;;3.64;100.00;103620.94;5014775;28;19933;-66
2023/01/23 07:21:38;;;;;;;;;;;;;;;3.63;100.00;103615.81;5026567;28;19936;-66
2023/01/23 07:24:05;;;;;;;;;;;;;;;3.63;100.00;103627.03;5018093;28;19960;-66
2023/01/23 07:26:31;;;;;;;;;;;;;;;3.64;100.00;103625.28;5025558;28;19929;-66
2023/01/23 07:28:58;;;;;;;;;;;;;;;3.67;100.00;103635.63;5009779;28;20047;-66
2023/01/23 07:31:25;;;;;;;;;;;;;;;3.66;100.00;103629.56;4998364;28;20195;-66
2023/01/23 07:33:51;;;;;;;;;;;;;;;3.64;100.00;103633.06;5005886;28;19932;-67
2023/01/23 07:36:18;;;;;;;;;;;;;;;3.67;100.00;103641.66;4993500;28;20323;-66
2023/01/23 07:38:45;;;;;;;;;;;;;;;3.68;100.00;103642.50;5010932;28;19932;-66
2023/01/23 07:41:11;;;;;;;;;;;;;;;3.68;100.00;103648.53;4993892;28;19925;-66
2023/01/23 07:43:38;;;;;;;;;;;;;;;3.71;100.00;103650.25;4996435;28;20019;-67
2023/01/23 07:46:04;;;;;;;;;;;;;;;3.70;100.00;103651.13;4970796;28;19921;-67
2023/01/23 07:48:30;;;;;;;;;;;;;;;3.70;100.00;103658.91;5000083;28;19930;-66
2023/01/23 07:51:00;;;;;;;;;;;;;;;3.70;100.00;103659.75;5002453;28;19922;-65
2023/01/23 07:53:26;;;;;;;;;;;;;;;3.73;100.00;103664.03;4983878;28;19957;-66
2023/01/23 07:55:53;;;;;;;;;;;;;;;3.71;100.00;103661.47;4997066;28;19925;-66
2023/01/23 07:58:20;;;;;;;;;;;;;;;3.71;100.00;103660.63;4988474;28;19925;-66
2023/01/23 08:00:46;;;;;;;;;;;;;;;3.70;100.00;103656.31;5000193;28;19929;-66
2023/01/23 08:03:13;;;;;;;;;;;;;;;3.73;100.00;103662.28;5000277;28;19925;-66
2023/01/23 08:05:39;;;;;;;;;;;;;;;3.75;100.00;103662.28;4999502;28;20359;-67
2023/01/23 08:08:08;;;;;;;;;;;;;;;3.71;100.00;103669.25;4997777;28;19926;-67
2023/01/23 08:10:39;;;;;;;;;;;;;;;3.71;100.00;103676.22;4984853;28;19976;-68
2023/01/23 08:13:06;;;;;;;;;;;;;;;3.74;100.00;103677.00;5003742;28;19921;-67
2023/01/23 08:15:32;;;;;;;;;;;;;;;3.79;100.00;103682.09;4994236;28;19925;-68
2023/01/23 08:17:58;;;;;;;;;;;;;;;3.80;100.00;103673.41;5015035;28;20062;-66
2023/01/23 08:20:25;;;;;;;;;;;;;;;3.82;100.00;103678.56;5008133;28;19972;-66
2023/01/23 08:22:52;;;;;;;;;;;;;;;3.82;100.00;103678.56;5000663;28;19929;-67
2023/01/23 08:25:18;;;;;;;;;;;;;;;3.85;100.00;103683.69;4996720;28;20289;-67
2023/01/23 08:27:44;;;;;;;;;;;;;;;3.84;100.00;103684.56;4998346;28;19926;-67
2023/01/23 08:30:11;;;;;;;;;;;;;;;3.83;100.00;103691.53;4999619;28;20514;-66
2023/01/23 08:32:37;;;;;;;;;;;;;;;3.83;100.00;103678.53;4996428;28;19925;-67
2023/01/23 08:35:04;;;;;;;;;;;;;;;3.87;100.00;103676.72;5005504;28;19937;-66
2023/01/23 08:37:32;;;;;;;;;;;;;;;3.86;100.00;103686.28;4994969;28;19925;-67
2023/01/23 08:39:58;;;;;;;;;;;;;;;3.93;100.00;103689.59;4968026;28;20364;-67
2023/01/23 08:42:25;;;;;;;;;;;;;;;3.96;100.00;103681.75;5003747;28;19933;-66
2023/01/23 08:44:51;;;;;;;;;;;;;;;3.95;100.00;103686.06;4997952;28;19929;-67
2023/01/23 08:47:18;;;;;;;;;;;;;;;3.94;100.00;103681.78;5004411;28;19921;-66
2023/01/23 08:49:44;;;;;;;;;;;;;;;3.94;100.00;103680.91;4994523;28;19928;-66
2023/01/23 08:52:10;;;;;;;;;;;;;;;3.94;100.00;103686.13;4998718;28;19932;-66
2023/01/23 08:54:37;;;;;;;;;;;;;;;3.92;100.00;103691.34;4992980;28;19921;-67
2023/01/23 08:57:03;;;;;;;;;;;;;;;3.94;100.00;103693.91;4987740;28;19925;-66
2023/01/23 08:59:30;;;;;;;;;;;;;;;4.00;100.00;103695.50;4998347;28;19925;-66
2023/01/23 09:01:56;;;;;;;;;;;;;;;4.02;100.00;103699.78;4982585;28;19929;-66
2023/01/23 09:04:22;;;;;;;;;;;;;;;4.06;100.00;103708.38;4991948;28;20104;-67
2023/01/23 09:06:49;;;;;;;;;;;;;;;4.09;100.00;103701.34;4985290;28;19932;-66
2023/01/23 09:09:16;;;;;;;;;;;;;;;4.14;100.00;103698.66;4993849;28;20422;-66
2023/01/23 09:11:42;;;;;;;;;;;;;;;4.15;100.00;103697.75;4989301;28;19929;-67
2023/01/23 09:14:08;;;;;;;;;;;;;;;4.20;100.00;103689.88;4994492;28;19932;-66
2023/01/23 09:16:34;;;;;;;;;;;;;;;4.20;100.00;103690.72;4993598;28;19960;-67
2023/01/23 09:19:01;;;;;;;;;;;;;;;4.21;100.00;103684.63;4977564;28;20392;-67
2023/01/23 09:21:27;;;;;;;;;;;;;;;4.24;100.00;103678.53;4999305;28;19928;-66
2023/01/23 09:23:55;;;;;;;;;;;;;;;4.22;100.00;103672.50;4994174;28;19946;-66
2023/01/23 09:26:21;;;;;;;;;;;;;;;4.26;100.00;103676.75;4999597;28;20635;-67
2023/01/23 09:28:47;;;;;;;;;;;;;;;4.27;100.00;103679.31;4994331;28;19922;-66
2023/01/23 09:31:14;;;;;;;;;;;;;;;4.27;100.00;103676.72;4993579;28;19968;-67
2023/01/23 09:33:41;;;;;;;;;;;;;;;4.32;100.00;103681.78;4987599;28;19928;-66
2023/01/23 09:36:07;;;;;;;;;;;;;;;4.33;100.00;103686.09;4993709;28;19921;-67
2023/01/23 09:38:34;;;;;;;;;;;;;;;4.35;100.00;103690.38;4998755;28;19925;-67
2023/01/23 09:41:07;;;;;;;;;;;;;;;4.40;100.00;103695.47;4999839;28;19964;-66
2023/01/23 09:43:38;;;;;;;;;;;;;;;4.43;100.00;103707.53;5012552;28;19925;-67
2023/01/23 09:46:10;;;;;;;;;;;;;;;4.47;100.00;103712.63;5005488;28;19925;-68
2023/01/23 09:48:48;;;;;;;;;;;;;;;4.41;100.00;103715.38;5008265;28;19922;-67
2023/01/23 09:51:37;;;;;;;;;;;;;;;4.41;100.00;103712.78;5003994;28;19926;-66
2023/01/23 09:54:13;;;;;;;;;;;;;;;4.41;100.00;103720.59;4995234;28;19925;-67
2023/01/23 09:56:43;;;;;;;;;;;;;;;4.43;100.00;103723.13;5005192;28;19925;-67
2023/01/23 09:59:09;;;;;;;;;;;;;;;4.44;100.00;103724.84;5000933;28;19925;-67
2023/01/23 10:01:36;;;;;;;;;;;;;;;4.45;100.00;103721.34;5001385;28;19925;-66
2023/01/23 10:04:03;;;;;;;;;;;;;;;4.46;100.00;103721.31;4998600;28;19936;-66
2023/01/23 10:06:30;;;;;;;;;;;;;;;4.50;100.00;103722.09;5005653;28;19925;-66
2023/01/23 10:08:57;;;;;;;;;;;;;;;4.51;100.00;103716.03;5005037;28;19921;-67
2023/01/23 10:11:42;;;;;;;;;;;;;;;4.57;100.00;103723.69;5000617;28;19922;-66
2023/01/23 10:14:11;;;;;;;;;;;;;;;4.60;100.00;103722.75;5002978;28;19927;-67
2023/01/23 10:16:57;;;;;;;;;;;;;;;4.60;100.00;103720.13;4997706;28;19925;-67
2023/01/23 10:19:35;;;;;;;;;;;;;;;4.65;100.00;103713.09;5008172;28;19968;-66
2023/01/23 10:22:13;;;;;;;;;;;;;;;4.68;100.00;103715.59;5006074;28;20444;-67
2023/01/23 10:24:49;;;;;;;;;;;;;;;4.72;100.00;103718.13;5009230;28;19925;-67
2023/01/23 10:27:30;;;;;;;;;;;;;;;4.72;100.00;103715.50;4999842;28;19928;-67
2023/01/23 10:29:58;;;;;;;;;;;;;;;4.71;100.00;103713.78;5000643;28;20370;-67
2023/01/23 10:32:26;;;;;;;;;;;;;;;4.77;100.00;103714.53;4997754;28;20419;-67
2023/01/23 10:35:04;;;;;;;;;;;;;;;4.75;100.00;103712.81;4996691;28;19933;-67
2023/01/23 10:37:36;;;;;;;;;;;;;;;4.80;100.00;103714.44;4995371;28;19925;-67
2023/01/23 10:40:11;;;;;;;;;;;;;;;4.82;100.00;103713.53;5007371;28;19941;-66
2023/01/23 10:42:37;;;;;;;;;;;;;;;4.84;100.00;103709.16;5003959;28;20392;-66
2023/01/23 10:45:05;;;;;;;;;;;;;;;4.88;100.00;103710.78;4995913;28;19921;-66
2023/01/23 10:47:34;;;;;;;;;;;;;;;4.92;100.00;103704.59;5013016;28;19921;-66
2023/01/23 10:50:03;;;;;;;;;;;;;;;4.95;100.00;103716.69;5001725;28;19959;-66
2023/01/23 10:52:33;;;;;;;;;;;;;;;4.96;100.00;103708.00;5014130;28;19925;-67
2023/01/23 10:54:59;;;;;;;;;;;;;;;5.00;100.00;103720.03;5001479;28;20207;-66
2023/01/23 10:57:28;;;;;;;;;;;;;;;4.98;100.00;103708.81;4998100;28;20377;-68
2023/01/23 11:00:04;;;;;;;;;;;;;;;5.03;100.00;103709.53;4994000;28;20434;-67
2023/01/23 11:02:35;;;;;;;;;;;;;;;4.97;100.00;103701.88;5002617;28;19925;-66
2023/01/23 11:05:22;;;;;;;;;;;;;;;5.05;100.00;103706.88;5019311;28;19925;-66
2023/01/23 11:07:53;;;;;;;;;;;;;;;5.20;100.00;103708.25;4998675;28;19921;-66
2023/01/23 11:10:22;;;;;;;;;;;;;;;5.24;100.00;103723.72;5002725;28;19921;-66
2023/01/23 11:12:50;;;;;;;;;;;;;;;5.28;100.00;103714.94;4993469;28;19987;-67
2023/01/23 11:15:24;;;;;;;;;;;;;;;5.27;100.00;103721.06;5006080;28;20310;-66
2023/01/23 11:17:52;;;;;;;;;;;;;;;5.32;100.00;103710.50;5001347;28;19921;-67
2023/01/23 11:20:23;;;;;;;;;;;;;;;5.35;100.00;103721.72;4995238;28;19929;-66
2023/01/23 11:23:02;;;;;;;;;;;;;;;5.44;100.00;103720.59;5015632;28;20289;-69
2023/01/23 11:25:34;;;;;;;;;;;;;;;5.41;100.00;103709.41;4995637;28;20043;-68
2023/01/23 11:28:02;;;;;;;;;;;;;;;5.42;100.00;103714.56;5003444;28;19921;-66
2023/01/23 11:30:33;;;;;;;;;;;;;;;5.42;100.00;103713.72;4999091;28;20012;-66
2023/01/23 11:33:12;;;;;;;;;;;;;;;5.43;100.00;103716.28;4998801;28;19973;-66
2023/01/23 11:35:49;;;;;;;;;;;;;;;5.39;100.00;103711.19;4983448;28;19921;-67
2023/01/23 11:38:19;;;;;;;;;;;;;;;5.28;100.00;103727.97;5006604;28;20380;-67
2023/01/23 11:40:56;;;;;;;;;;;;;;;5.33;100.00;103723.50;4979628;28;19941;-67
2023/01/23 11:43:22;;;;;;;;;;;;;;;5.38;100.00;103728.56;5013004;28;19936;-67
2023/01/23 11:45:58;;;;;;;;;;;;;;;5.42;100.00;103721.53;5007257;28;19972;-67
2023/01/23 11:48:47;;;;;;;;;;;;;;;5.53;100.00;103716.91;5000754;28;19925;-67
2023/01/23 11:51:32;;;;;;;;;;;;;;;5.58;100.00;103725.41;4995918;28;20024;-69
2023/01/23 11:53:59;;;;;;;;;;;;;;;5.60;100.00;103722.78;4988499;28;20217;-67
2023/01/23 11:56:38;;;;;;;;;;;;;;;5.58;100.00;103730.63;4993579;28;19926;-67
2023/01/23 11:59:11;;;;;;;;;;;;;;;5.53;100.00;103729.91;4997396;28;19921;-68
2023/01/23 12:02:04;;;;;;;;;;;;;;;5.54;100.00;103719.44;5007988;28;19925;-67
2023/01/23 12:04:51;;;;;;;;;;;;;;;5.54;100.00;103721.19;4992434;28;19932;-66
2023/01/23 12:07:19;;;;;;;;;;;;;;;5.49;100.00;103718.72;5001746;28;19921;-66
2023/01/23 12:10:04;;;;;;;;;;;;;;;5.49;100.00;103728.28;4998953;28;19926;-67
2023/01/23 12:12:39;;;;;;;;;;;;;;;5.55;100.00;103720.31;5007747;28;19929;-67
2023/01/23 12:15:13;;;;;;;;;;;;;;;5.55;100.00;103725.50;5000285;28;19984;-66
2023/01/23 12:17:43;;;;;;;;;;;;;;;5.56;100.00;103711.59;5006451;28;19936;-68
2023/01/23 12:20:18;;;;;;;;;;;;;;;5.53;100.00;103707.31;5000009;28;19928;-67
2023/01/23 12:23:00;;;;;;;;;;;;;;;5.58;100.00;103709.78;5005698;28;19968;-68
2023/01/23 12:25:34;;;;;;;;;;;;;;;5.57;100.00;103713.31;5008954;28;20382;-66
2023/01/23 12:28:03;;;;;;;;;;;;;;;5.50;100.00;103703.94;4999763;28;19932;-67
2023/01/23 12:30:53;;;;;;;;;;;;;;;5.52;100.00;103704.75;4995869;28;19938;-67
2023/01/23 12:33:25;;;;;;;;;;;;;;;5.57;100.00;103713.31;4993951;28;19952;-66
2023/01/23 12:36:00;;;;;;;;;;;;;;;5.57;100.00;103709.81;4995939;28;19995;-67
2023/01/23 12:38:27;;;;;;;;;;;;;;;5.58;100.00;103706.34;4995978;28;19984;-66
2023/01/23 12:41:20;;;;;;;;;;;;;;;5.56;100.00;103703.78;5004471;28;19928;-67
2023/01/23 12:43:53;;;;;;;;;;;;;;;5.60;100.00;103705.38;4999927;28;20059;-67
2023/01/23 12:46:32;;;;;;;;;;;;;;;5.63;100.00;103705.31;5003226;28;19925;-67
2023/01/23 12:49:08;;;;;;;;;;;;;;;5.62;100.00;103711.41;5009350;28;19925;-66
2023/01/23 12:51:37;;;;;;;;;;;;;;;5.64;100.00;103707.00;5008660;28;20032;-67